Nearby METAR Reports

 

LELL - Sabadell, Spain
Distance from station: E 18km
Updated: 21/10/2018 13:00
Clear
Clear
 Wind from SSW
Wind: SSW 11 km/h
Temperature: 23°C
Dew Point: 17°C
Humidity: 69%
Barometer: 1021 hPa
Summary: Clear
Visibility: greater than 10 km
2018/10/21 11:00 LELL 211100Z 20006KT 150V230 CAVOK 23/17 Q1021
LEBL - Barcelona Airpor, Spain
Distance from station: SSE 33km
Updated: 21/10/2018 13:00
Few Clouds
Few Clouds
 Wind from SW
Wind: SW 15 km/h
Temperature: 22°C
Dew Point: 15°C
Humidity: 65%
Barometer: 1021 hPa
Clouds: Few Clouds
Visibility: 10 km
Cloud details: Few Clouds 1219 m
2018/10/21 11:00 LEBL 211100Z 22008KT 9999 FEW040 22/15 Q1021 NOSIG
LERS - Reus (civ/Mil), Spain
Distance from station: SW 75km
Updated: 21/10/2018 13:00
Few Clouds
Few Clouds
 Wind from varies
Wind: varies 6 km/h
Temperature: 24°C
Dew Point: 15°C
Humidity: 57%
Barometer: 1021 hPa
Clouds: Few Clouds
Visibility: 10 km
Cloud details: Few Clouds 1067 m
2018/10/21 11:00 LERS 211100Z VRB03KT 9999 FEW035 24/15 Q1021
 
LEGE - Gerona/Costa Bra, Spain
Distance from station: ENE 83km
Updated: 21/10/2018 13:00
Few Clouds
Few Clouds
 Wind from varies
Wind: varies 4 km/h
Temperature: 22°C
Dew Point: 16°C
Humidity: 69%
Barometer: 1021 hPa
Clouds: Few Clouds
Visibility: 10 km
Cloud details: Few Clouds 1219 m
2018/10/21 11:00 LEGE 211100Z VRB02KT 9999 FEW040 22/16 Q1021
LFMP - Perpignan/Rivesa, France
Distance from station: NNE 155km
Updated: 21/10/2018 13:00
Clear
Clear
 Wind from ESE
Wind: ESE 7 km/h
Temperature: 23°C
Dew Point: 16°C
Humidity: 65%
Barometer: 1020 hPa
Summary: Clear
Visibility: greater than 10 km
2018/10/21 11:00 LFMP 211100Z AUTO 11004KT 060V170 CAVOK 23/16 Q1020 BECMG 32010KT
LFMK - Carcassonne/Salv, France
Distance from station: N 191km
Updated: 21/10/2018 13:00
Clear
Clear
 Wind from W
Wind: W 26 km/h
Temperature: 19°C
Dew Point: 14°C
Humidity: 73%
Barometer: 1022 hPa
Summary: Clear
Visibility: greater than 10 km
2018/10/21 11:00 LFMK 211100Z AUTO 27014KT 230V290 CAVOK 19/14 Q1022 NOSIG
 
LEHC - Huesca-Pirineos, Spain
Distance from station: WNW 193km
Updated: 21/10/2018 13:00
Few Clouds
Few Clouds
 Wind from SW
Wind: SW 15 km/h
Temperature: 20°C
Dew Point: 15°C
Humidity: 73%
Barometer: 1023 hPa
Clouds: Few Clouds
Visibility: 10 km
Cloud details: Few Clouds 975 m
2018/10/21 11:00 LEHC 211100Z 23008KT 190V290 9999 FEW032 20/15 Q1023
LFMU - Beziers/Vias, France
Distance from station: NNE 232km
Updated: 21/10/2018 13:00
Clear
Clear
 Wind from W
Wind: W 15 km/h
Temperature: 21°C
Dew Point: 14°C
Humidity: 64%
Barometer: 1020 hPa
Summary: Clear
Visibility: greater than 10 km
2018/10/21 11:00 LFMU 211100Z AUTO 28008KT 240V300 CAVOK 21/14 Q1020 NOSIG
LEPA - Palma De Mallorc, Spain
Distance from station: SSE 233km
Updated: 21/10/2018 13:00
Partly cloudy
Partly cloudy
 Wind from ENE
Wind: ENE 6 km/h
Temperature: 25°C
Dew Point: 18°C
Humidity: 65%
Barometer: 1021 hPa
Clouds: Partly cloudy
Visibility: 10 km
Cloud details: Partly cloudy 610 m
2018/10/21 11:00 LEPA 211100Z 06003KT 9999 SCT020 25/18 Q1021 NOSIG
 
LFBO - Toulouse/Blagnac, France
Distance from station: N 236km
Updated: 21/10/2018 13:00
Overcast
Overcast
 Wind from WSW
Wind: WSW 6 km/h
Temperature: 15°C
Dew Point: 14°C
Humidity: 94%
Barometer: 1024 hPa
Clouds: Overcast
Visibility: 8 km
Cloud details: Overcast 152 m
2018/10/21 11:00 LFBO 211100Z AUTO 25003KT 190V300 8000 OVC005 15/14 Q1024 BECMG NSC
LFBT - Tarbes/Ossun, France
Distance from station: NW 239km
Updated: 21/10/2018 13:00
Clear
Clear
 Wind from varies
Wind: varies 6 km/h
Temperature: 19°C
Dew Point: 13°C
Humidity: 68%
Barometer: 1024 hPa
Summary: Clear
Visibility: greater than 10 km
2018/10/21 11:00 LFBT 211100Z AUTO VRB03KT CAVOK 19/13 Q1024 NOSIG
LEZG - Zaragoza (mil/Ci, Spain
Distance from station: W 242km
Updated: 21/10/2018 13:00
Few Clouds
Few Clouds
 Wind from WNW
Wind: WNW 6 km/h
Temperature: 19°C
Dew Point: 15°C
Humidity: 78%
Barometer: 1023 hPa
Clouds: Few Clouds
Visibility: 10 km
Cloud details: Few Clouds 914 m
2018/10/21 11:00 LEZG 211100Z 30003KT 240V010 9999 FEW030 19/15 Q1023